Time;durP1;ratioP1;P1;durP2;ratioP2;P2;SDS_P1;SDS_P2;PMS_P1;PMS_P2;Temp;Humidity;BMP_temperature;BMP_pressure;BME280_temperature;BME280_humidity;BME280_pressure;Samples;Min_cycle;Max_cycle;Signal;HPM_P1;HPM_P2
2022/10/03 00:01:39;;;;;;;5.88;1.17;;;;;;;11.57;68.92;101311.19;5116448;27;20023;-36
2022/10/03 00:04:19;;;;;;;5.93;1.27;;;;;;;11.56;68.69;101310.31;5110164;27;20402;-36
2022/10/03 00:06:50;;;;;;;2.95;1.38;;;;;;;11.53;68.96;101313.84;5115998;27;20083;-36
2022/10/03 00:09:49;;;;;;;5.43;1.52;;;;;;;11.50;68.63;101305.91;5111409;27;20371;-36
2022/10/03 00:12:37;;;;;;;5.10;1.10;;;;;;;11.48;68.96;101313.00;5111743;27;20430;-36
2022/10/03 00:15:28;;;;;;;4.43;1.30;;;;;;;11.46;68.85;101312.09;5111160;28;20068;-36
2022/10/03 00:18:22;;;;;;;5.75;1.10;;;;;;;11.42;69.13;101319.16;5111737;28;20032;-36
2022/10/03 00:21:41;;;;;;;6.85;1.40;;;;;;;11.43;69.03;101330.59;5104366;28;20024;-36
2022/10/03 00:24:23;;;;;;;6.15;1.30;;;;;;;11.40;69.00;101320.03;5117807;28;20083;-36
2022/10/03 00:26:48;;;;;;;3.33;1.20;;;;;;;11.37;69.42;101326.19;5089935;28;20023;-36
2022/10/03 00:29:38;;;;;;;4.30;1.43;;;;;;;11.37;69.68;101330.63;5119297;28;20450;-36
2022/10/03 00:32:35;;;;;;;7.50;1.20;;;;;;;11.33;69.71;101340.28;5111197;28;20493;-36
2022/10/03 00:35:12;;;;;;;4.72;1.23;;;;;;;11.31;69.98;101331.50;5106812;28;20055;-36
2022/10/03 00:38:04;;;;;;;3.20;1.10;;;;;;;11.32;70.25;101338.53;5111273;28;20205;-36
2022/10/03 00:40:48;;;;;;;5.70;1.30;;;;;;;11.28;70.25;101332.38;5112255;28;20457;-36
2022/10/03 00:43:45;;;;;;;6.80;1.63;;;;;;;11.29;70.01;101334.16;5102828;28;20046;-36
2022/10/03 00:46:20;;;;;;;4.28;1.45;;;;;;;11.28;69.93;101342.06;5111848;28;20046;-36
2022/10/03 00:49:07;;;;;;;5.35;1.23;;;;;;;11.27;70.09;101337.69;5094310;28;20553;-36
2022/10/03 00:51:44;;;;;;;4.38;1.30;;;;;;;11.26;70.21;101336.78;5111660;28;20113;-36
2022/10/03 00:54:31;;;;;;;5.93;1.20;;;;;;;11.26;70.31;101343.81;5117393;28;20023;-36
2022/10/03 00:57:22;;;;;;;5.72;1.40;;;;;;;11.25;70.36;101342.06;5116812;28;20026;-36
2022/10/03 00:59:53;;;;;;;9.25;1.90;;;;;;;11.24;70.31;101345.59;5106784;28;20478;-36
2022/10/03 01:02:29;;;;;;;5.45;1.65;;;;;;;11.22;70.37;101336.78;5110277;28;20039;-36
2022/10/03 01:05:02;;;;;;;5.85;1.13;;;;;;;11.23;71.13;101346.47;5080994;28;20389;-36
2022/10/03 01:08:02;;;;;;;4.90;1.10;;;;;;;11.22;70.92;101345.59;5097192;28;20023;-36
2022/10/03 01:10:42;;;;;;;9.02;1.15;;;;;;;11.21;71.43;101350.88;5118012;28;20027;-36
2022/10/03 01:13:31;;;;;;;5.95;1.30;;;;;;;11.22;71.04;101347.34;5122257;28;20538;-36
2022/10/03 01:16:18;;;;;;;3.72;1.30;;;;;;;11.22;71.31;101348.25;5082579;28;20114;-36
2022/10/03 01:19:10;;;;;;;4.93;1.05;;;;;;;11.21;71.44;101353.53;5114258;28;20023;-37
2022/10/03 01:21:42;;;;;;;5.65;1.30;;;;;;;11.19;71.27;101348.25;5116445;28;20027;-35
2022/10/03 01:24:20;;;;;;;5.38;1.30;;;;;;;11.20;71.32;101354.41;5114031;28;20051;-36
2022/10/03 01:26:52;;;;;;;5.97;1.40;;;;;;;11.21;71.20;101348.25;5093210;28;20028;-36
2022/10/03 01:32:57;;;;;;;3.47;1.10;;;;;;;11.20;71.68;101354.41;5115466;27;20030;-35
2022/10/03 01:35:26;;;;;;;4.88;1.13;;;;;;;11.20;71.65;101357.06;5114461;27;20435;-36
2022/10/03 01:38:19;;;;;;;5.80;1.40;;;;;;;11.20;71.66;101357.06;5114569;27;20024;-35
2022/10/03 01:41:23;;;;;;;6.70;1.30;;;;;;;11.21;71.91;101362.34;5118808;27;20051;-37
2022/10/03 01:44:12;;;;;;;6.25;1.52;;;;;;;11.22;71.88;101361.44;5120617;27;20389;-36
2022/10/03 01:46:42;;;;;;;4.03;1.10;;;;;;;11.24;72.14;101366.72;5116926;27;20054;-36
2022/10/03 01:49:48;;;;;;;3.65;1.00;;;;;;;11.24;71.65;101364.09;5095014;27;20114;-37
2022/10/03 01:52:22;;;;;;;5.63;1.23;;;;;;;11.25;71.67;101365.84;5102432;28;20453;-36
2022/10/03 01:55:12;;;;;;;5.90;1.50;;;;;;;11.26;72.40;101367.59;5097571;28;20469;-36
2022/10/03 01:57:42;;;;;;;7.85;1.58;;;;;;;11.26;73.27;101365.84;5113862;27;20051;-36
2022/10/03 02:00:19;;;;;;;8.25;1.60;;;;;;;11.25;73.13;101369.38;5113003;27;20018;-36
2022/10/03 02:02:46;;;;;;;5.10;1.23;;;;;;;11.29;73.43;101371.13;5101922;27;20396;-36
2022/10/03 02:05:40;;;;;;;9.05;1.58;;;;;;;11.30;73.71;101377.25;5101441;28;20031;-36
2022/10/03 02:08:32;;;;;;;7.22;1.50;;;;;;;11.31;73.61;101373.78;5118643;27;20118;-36
2022/10/03 02:11:07;;;;;;;6.68;1.30;;;;;;;11.33;74.00;101377.25;5100198;27;20020;-36
2022/10/03 02:13:49;;;;;;;4.93;1.58;;;;;;;11.35;74.23;101378.16;5095595;28;20554;-36
2022/10/03 02:16:42;;;;;;;5.30;1.35;;;;;;;11.37;73.86;101379.03;5119679;27;20477;-36
2022/10/03 02:19:36;;;;;;;3.80;1.23;;;;;;;11.39;74.74;101382.56;5105514;27;20370;-36
2022/10/03 02:22:02;;;;;;;7.68;1.50;;;;;;;11.41;74.92;101386.06;5098191;27;20091;-36
2022/10/03 02:24:51;;;;;;;7.50;1.27;;;;;;;11.40;75.23;101384.31;5112281;27;20028;-37
2022/10/03 02:27:43;;;;;;;5.85;1.27;;;;;;;11.42;74.93;101387.84;5085325;27;20385;-36
2022/10/03 02:30:13;;;;;;;5.60;1.20;;;;;;;11.47;74.88;101386.94;5121199;27;20022;-36
2022/10/03 02:33:10;;;;;;;7.43;1.20;;;;;;;11.49;74.68;101398.38;5111807;27;20084;-36
2022/10/03 02:35:57;;;;;;;4.43;1.10;;;;;;;11.51;74.61;101396.63;5103970;27;20019;-37
2022/10/03 02:38:43;;;;;;;4.88;1.20;;;;;;;11.51;74.71;101397.50;5116747;27;20537;-36
2022/10/03 02:41:38;;;;;;;4.88;1.25;;;;;;;11.54;74.78;101404.56;5115179;27;20042;-36
2022/10/03 02:44:32;;;;;;;7.05;1.27;;;;;;;11.56;74.98;101413.34;5119162;27;20278;-35
2022/10/03 02:47:21;;;;;;;3.67;1.27;;;;;;;11.56;76.05;101421.25;5113042;28;20027;-36
2022/10/03 02:50:00;;;;;;;4.72;1.20;;;;;;;11.59;76.88;101430.94;5097797;28;20019;-35
2022/10/03 02:52:57;;;;;;;7.15;1.70;;;;;;;11.57;76.79;101423.03;5101502;27;20023;-35
2022/10/03 02:55:50;;;;;;;5.78;1.40;;;;;;;11.59;77.00;101426.56;5124933;27;20027;-37
2022/10/03 02:58:30;;;;;;;8.45;1.60;;;;;;;11.63;76.38;101428.31;5120252;27;20508;-35
2022/10/03 03:01:39;;;;;;;4.97;1.10;;;;;;;11.66;76.17;101427.41;5115081;27;20102;-35
2022/10/03 03:04:21;;;;;;;5.88;1.38;;;;;;;11.67;76.03;101427.41;5110629;27;20397;-35
2022/10/03 03:07:02;;;;;;;7.38;1.17;;;;;;;11.69;76.05;101430.06;5112608;27;20464;-35
2022/10/03 03:10:06;;;;;;;7.10;1.65;;;;;;;11.70;75.52;101431.81;5117177;27;20035;-35
2022/10/03 03:12:47;;;;;;;6.63;1.30;;;;;;;11.73;75.35;101423.88;5113475;27;20479;-37
2022/10/03 03:15:38;;;;;;;6.68;1.23;;;;;;;11.74;75.30;101440.63;5101133;27;20041;-36
2022/10/03 03:18:29;;;;;;;5.72;1.25;;;;;;;11.75;75.20;101434.44;5099704;28;20027;-36
2022/10/03 03:21:31;;;;;;;5.03;1.58;;;;;;;11.75;75.64;101430.06;5114518;27;20019;-36
2022/10/03 03:23:59;;;;;;;4.15;1.35;;;;;;;11.76;75.69;101433.56;5112157;27;20035;-36
2022/10/03 03:26:46;;;;;;;5.63;1.50;;;;;;;11.75;75.79;101427.41;5112856;28;20470;-36
2022/10/03 03:29:26;;;;;;;3.53;1.40;;;;;;;11.76;75.43;101431.81;5123398;27;20031;-35
2022/10/03 03:32:10;;;;;;;7.50;1.90;;;;;;;11.77;75.58;101427.41;5115220;27;20030;-36
2022/10/03 03:34:48;;;;;;;6.15;1.90;;;;;;;11.77;76.04;101430.06;5112700;28;20393;-37
2022/10/03 03:37:52;;;;;;;6.13;1.88;;;;;;;11.78;75.66;101437.09;5096070;27;20031;-37
2022/10/03 03:40:38;;;;;;;5.60;1.80;;;;;;;11.78;75.89;101435.31;5114985;27;20023;-36
2022/10/03 03:43:18;;;;;;;7.47;1.90;;;;;;;11.78;76.58;101437.09;5120374;27;20393;-36
2022/10/03 03:45:59;;;;;;;7.63;2.10;;;;;;;11.78;76.51;101440.59;5114647;27;20124;-37
2022/10/03 03:48:43;;;;;;;8.68;2.13;;;;;;;11.79;76.17;101444.13;5112043;27;20027;-36
2022/10/03 03:51:14;;;;;;;5.93;2.20;;;;;;;11.80;76.06;101441.50;5111935;28;20027;-35
2022/10/03 03:54:03;;;;;;;6.00;2.25;;;;;;;11.80;76.46;101448.53;5111211;28;20148;-36
2022/10/03 03:56:47;;;;;;;6.35;1.88;;;;;;;11.79;76.92;101446.78;5112162;28;20480;-35
2022/10/03 03:59:52;;;;;;;8.75;1.90;;;;;;;11.79;76.46;101454.72;5112177;27;20042;-36
2022/10/03 04:02:39;;;;;;;7.13;2.20;;;;;;;11.81;76.76;101458.25;5097084;27;20453;-37
2022/10/03 04:05:30;;;;;;;6.72;2.10;;;;;;;11.80;76.20;101462.63;5111262;28;20030;-35
2022/10/03 04:08:20;;;;;;;6.97;2.28;;;;;;;11.82;76.25;101460.00;5119906;27;20075;-37
2022/10/03 04:10:57;;;;;;;5.78;2.20;;;;;;;11.83;76.40;101461.75;5100550;27;20023;-36
2022/10/03 04:13:33;;;;;;;6.55;2.08;;;;;;;11.84;76.00;101468.78;5118391;27;20125;-38
2022/10/03 04:18:56;;;;;;;6.68;2.13;;;;;;;11.84;76.13;101460.00;5108788;28;20474;-37
2022/10/03 04:19:37;;;;;;;8.55;2.28;;;;;;;11.85;76.36;101462.63;5115398;27;20059;-37
2022/10/03 04:22:21;;;;;;;5.90;1.85;;;;;;;11.86;76.58;101458.22;5096480;28;20481;-38
2022/10/03 04:25:25;;;;;;;5.78;2.45;;;;;;;11.84;76.75;101463.50;5117183;28;20032;-37
2022/10/03 04:28:03;;;;;;;8.13;1.92;;;;;;;11.85;77.04;101477.59;5093624;28;20067;-38
2022/10/03 04:30:45;;;;;;;7.40;2.20;;;;;;;11.86;76.36;101476.72;5113236;28;20019;-38
2022/10/03 04:33:26;;;;;;;5.57;1.70;;;;;;;11.85;76.70;101475.84;5107009;28;20059;-36
2022/10/03 04:36:10;;;;;;;6.40;1.73;;;;;;;11.86;76.51;101461.75;5113683;28;20026;-38
2022/10/03 04:38:47;;;;;;;5.22;1.83;;;;;;;11.88;76.10;101469.69;5095095;28;20035;-38
2022/10/03 04:41:26;;;;;;;4.38;1.77;;;;;;;11.87;76.42;101460.84;5093274;28;20389;-38
2022/10/03 04:44:02;;;;;;;5.68;1.77;;;;;;;11.89;76.28;101467.03;5115240;28;20174;-37
2022/10/03 04:46:38;;;;;;;;;;;;;;;11.87;76.31;101468.78;5111996;28;20136;-36
2022/10/03 04:49:17;;;;;;;5.25;1.90;;;;;;;11.88;75.90;101465.28;5094981;28;20362;-36
2022/10/03 04:51:45;;;;;;;6.70;1.88;;;;;;;11.89;75.83;101467.03;5116806;28;20437;-36
2022/10/03 04:54:29;;;;;;;5.32;2.10;;;;;;;11.86;75.67;101472.31;5113611;28;20063;-37
2022/10/03 04:57:06;;;;;;;6.97;3.25;;;;;;;11.86;75.61;101467.03;5115053;28;20070;-38
2022/10/03 04:59:39;;;;;;;9.68;3.38;;;;;;;11.86;75.46;101471.44;5103467;28;20031;-37
2022/10/03 05:02:13;;;;;;;7.50;3.05;;;;;;;11.84;75.33;101474.06;5100052;27;20050;-38
2022/10/03 05:04:42;;;;;;;7.60;3.15;;;;;;;11.85;75.31;101474.97;5105821;27;20439;-37
2022/10/03 05:07:19;;;;;;;9.43;3.45;;;;;;;11.84;75.19;101474.06;5119643;27;20027;-37
2022/10/03 05:10:36;;;;;;;10.05;3.28;;;;;;;11.82;75.15;101475.84;5121035;27;20023;-37
2022/10/03 05:13:07;;;;;;;7.38;3.22;;;;;;;11.80;74.95;101478.50;5067411;28;20056;-37
2022/10/03 05:16:00;;;;;;;7.65;3.17;;;;;;;11.78;74.75;101474.97;5069597;28;20106;-37
2022/10/03 05:18:37;;;;;;;7.07;2.83;;;;;;;11.78;74.83;101474.97;5095145;27;20124;-37
2022/10/03 05:21:23;;;;;;;6.72;2.83;;;;;;;11.77;74.42;101480.28;5122445;27;20023;-37
2022/10/03 05:24:19;;;;;;;8.05;2.97;;;;;;;11.75;74.38;101471.47;5121502;27;20513;-37
2022/10/03 05:26:58;;;;;;;7.38;2.80;;;;;;;11.73;74.55;101467.91;5115021;28;20027;-37
2022/10/03 05:29:38;;;;;;;6.80;2.72;;;;;;;11.72;74.19;101479.38;5116200;27;20062;-37
2022/10/03 05:32:16;;;;;;;9.07;3.17;;;;;;;11.68;74.02;101476.72;5121298;27;20085;-37
2022/10/03 05:34:51;;;;;;;7.70;2.67;;;;;;;11.67;74.21;101472.34;5103196;27;20381;-37
2022/10/03 05:37:31;;;;;;;9.70;3.80;;;;;;;11.67;74.09;101482.91;5125258;27;20453;-37
2022/10/03 05:40:22;;;;;;;7.00;2.85;;;;;;;11.66;74.22;101486.44;5118774;27;20062;-37
2022/10/03 05:42:48;;;;;;;7.40;2.85;;;;;;;11.65;74.21;101484.69;5096375;28;20031;-37
2022/10/03 05:45:34;;;;;;;6.72;2.72;;;;;;;11.66;74.04;101490.84;5120666;27;20417;-38
2022/10/03 05:48:37;;;;;;;7.97;2.80;;;;;;;11.65;74.39;101499.66;5116948;27;20102;-38
2022/10/03 05:51:19;;;;;;;6.28;2.67;;;;;;;11.64;74.71;101509.31;5116305;27;20055;-38
2022/10/03 05:54:24;;;;;;;6.88;2.60;;;;;;;11.63;74.71;101510.22;5116567;27;20112;-38
2022/10/03 05:57:08;;;;;;;11.30;2.80;;;;;;;11.61;75.44;101508.47;5106762;28;20020;-36
2022/10/03 05:59:51;;;;;;;8.55;2.83;;;;;;;11.61;74.73;101511.97;5119990;27;20061;-37
2022/10/03 06:02:56;;;;;;;7.22;2.40;;;;;;;11.60;75.21;101515.50;5115082;27;20071;-37
2022/10/03 06:05:39;;;;;;;6.95;2.50;;;;;;;11.58;75.68;101509.34;5089452;27;20494;-37
2022/10/03 06:08:59;;;;;;;6.60;2.30;;;;;;;11.58;76.16;101519.03;5114279;28;20027;-37
2022/10/03 06:11:56;;;;;;;6.07;2.53;;;;;;;11.58;75.88;101525.19;5061603;28;20048;-37
2022/10/03 06:14:34;;;;;;;8.00;2.65;;;;;;;11.60;76.25;101535.78;5122817;27;20579;-37
2022/10/03 06:17:17;;;;;;;9.00;2.30;;;;;;;11.57;76.40;101527.84;5113671;27;20074;-37
2022/10/03 06:19:48;;;;;;;4.13;2.20;;;;;;;11.58;76.89;101538.41;5112969;27;20070;-37
2022/10/03 06:22:23;;;;;;;5.78;2.20;;;;;;;11.55;77.71;101548.97;5119985;27;20038;-37
2022/10/03 06:25:10;;;;;;;5.78;2.30;;;;;;;11.55;77.60;101548.97;5113308;27;20525;-37
2022/10/03 06:28:28;;;;;;;7.80;2.30;;;;;;;11.58;77.27;101550.72;5101150;28;20028;-37
2022/10/03 06:31:28;;;;;;;7.13;2.30;;;;;;;11.58;77.95;101556.91;5025147;28;20034;-37
2022/10/03 06:34:18;;;;;;;7.35;2.20;;;;;;;11.58;78.34;101562.19;5100989;27;20019;-37
2022/10/03 06:37:02;;;;;;;7.65;2.40;;;;;;;11.58;79.01;101563.94;5072136;22;20503;-33
2022/10/03 06:39:55;;;;;;;5.85;2.42;;;;;;;11.59;79.04;101563.94;5067058;28;20037;-33
2022/10/03 06:42:39;;;;;;;6.53;2.30;;;;;;;11.61;78.44;101566.59;5059652;28;20052;-33
2022/10/03 06:45:08;;;;;;;6.57;2.70;;;;;;;11.63;79.10;101562.16;5055312;28;20033;-33
2022/10/03 06:47:59;;;;;;;7.00;2.55;;;;;;;11.64;78.68;101564.81;5044487;28;20490;-33
2022/10/03 06:50:45;;;;;;;6.00;2.50;;;;;;;11.64;78.98;101556.88;5046366;28;20051;-33
2022/10/03 06:53:29;;;;;;;5.95;2.38;;;;;;;11.68;78.53;101571.88;5040887;28;20075;-33
2022/10/03 06:56:40;;;;;;;10.27;2.50;;;;;;;11.72;78.83;101564.84;5043916;28;20033;-33
2022/10/03 06:59:18;;;;;;;6.28;2.30;;;;;;;11.74;78.35;101580.69;5037452;28;20037;-33
2022/10/03 07:01:58;;;;;;;8.82;2.63;;;;;;;11.77;78.78;101583.34;5045654;28;20022;-33
2022/10/03 07:04:54;;;;;;;5.65;2.38;;;;;;;11.77;79.11;101583.34;5047428;28;20028;-33
2022/10/03 07:07:58;;;;;;;6.95;2.50;;;;;;;11.80;79.65;101584.22;5038110;28;20021;-33
2022/10/03 07:10:29;;;;;;;5.75;2.63;;;;;;;11.80;79.63;101584.22;5044728;28;20125;-33
2022/10/03 07:13:10;;;;;;;5.95;2.40;;;;;;;11.81;79.67;101579.81;5043526;28;20033;-32
2022/10/03 07:15:42;;;;;;;6.47;2.20;;;;;;;11.84;80.07;101581.56;5044967;28;20029;-33
2022/10/03 07:18:41;;;;;;;7.55;2.55;;;;;;;11.85;79.88;101588.63;5037246;28;20064;-33
2022/10/03 07:21:40;;;;;;;5.90;2.22;;;;;;;11.88;79.60;101591.28;5049443;28;20021;-33
2022/10/03 07:24:14;;;;;;;7.18;2.33;;;;;;;11.92;79.31;101596.56;5045047;28;20025;-33
2022/10/03 07:27:18;;;;;;;8.07;2.17;;;;;;;11.93;79.70;101595.69;5044195;28;20025;-33
2022/10/03 07:30:02;;;;;;;6.57;2.50;;;;;;;11.94;79.70;101599.22;5033369;28;20029;-33
2022/10/03 07:33:03;;;;;;;9.10;2.38;;;;;;;11.98;79.59;101602.72;5035619;28;20028;-33
2022/10/03 07:38:58;;;;;;;4.63;2.38;;;;;;;12.05;79.49;101615.06;5041096;28;20031;-33
2022/10/03 07:42:02;;;;;;;6.80;2.70;;;;;;;12.05;79.80;101605.38;5041641;28;20021;-33
2022/10/03 07:44:49;;;;;;;4.85;2.00;;;;;;;12.09;79.54;101608.03;5045190;28;20036;-32
2022/10/03 07:47:52;;;;;;;5.97;2.13;;;;;;;12.13;79.94;101608.03;5039724;28;20032;-33
2022/10/03 07:50:43;;;;;;;5.47;2.22;;;;;;;12.16;79.33;101623.91;5049754;28;20028;-32
2022/10/03 07:53:33;;;;;;;5.63;2.20;;;;;;;12.19;79.61;101618.63;5036580;28;20027;-33
2022/10/03 07:56:01;;;;;;;5.65;2.55;;;;;;;12.22;79.69;101617.72;5047985;28;20024;-34
2022/10/03 07:59:11;;;;;;;5.43;1.73;;;;;;;12.26;79.84;101630.06;5039416;28;20425;-33
2022/10/03 08:02:15;;;;;;;7.88;2.50;;;;;;;12.30;79.98;101633.56;5034399;28;20127;-33
2022/10/03 08:05:06;;;;;;;6.32;1.88;;;;;;;12.34;79.81;101639.75;5042707;28;20057;-33
2022/10/03 08:07:45;;;;;;;6.53;2.10;;;;;;;12.37;79.73;101632.69;5040647;28;20079;-33
2022/10/03 08:10:22;;;;;;;5.00;2.03;;;;;;;12.41;79.92;101634.44;5041830;28;20025;-33
2022/10/03 08:13:02;;;;;;;7.05;1.92;;;;;;;12.47;80.24;101635.34;5038964;28;20395;-33
2022/10/03 08:15:47;;;;;;;7.32;2.00;;;;;;;12.51;79.96;101645.03;5042440;28;20032;-33
2022/10/03 08:18:44;;;;;;;7.78;2.00;;;;;;;12.55;80.28;101630.91;5048246;28;20514;-33
2022/10/03 08:21:19;;;;;;;7.53;2.30;;;;;;;12.59;79.67;101627.38;5043302;28;20186;-33
2022/10/03 08:24:25;;;;;;;5.70;2.33;;;;;;;12.65;79.35;101635.31;5040999;28;20034;-33
2022/10/03 08:27:25;;;;;;;4.68;1.85;;;;;;;12.70;79.90;101638.81;5041860;28;20056;-33
2022/10/03 08:29:50;;;;;;;6.85;2.20;;;;;;;12.74;79.43;101642.31;5044577;28;20090;-33
2022/10/03 08:32:28;;;;;;;4.90;1.90;;;;;;;12.80;79.48;101652.91;5040547;28;20038;-34
2022/10/03 08:35:20;;;;;;;6.20;2.03;;;;;;;12.86;79.18;101646.72;5049343;28;20370;-33
2022/10/03 08:38:04;;;;;;;5.55;2.10;;;;;;;12.92;79.27;101646.69;5047374;28;20028;-34
2022/10/03 08:40:39;;;;;;;5.50;2.20;;;;;;;12.96;79.28;101648.44;5046681;28;20036;-33
2022/10/03 08:43:13;;;;;;;7.53;2.40;;;;;;;13.03;79.08;101651.06;5047927;28;20228;-32
2022/10/03 08:46:16;;;;;;;7.72;2.13;;;;;;;13.09;78.51;101654.59;5045226;28;20053;-33
2022/10/03 08:49:05;;;;;;;7.00;2.67;;;;;;;13.36;78.31;101651.81;5045535;28;20440;-30
2022/10/03 08:51:52;;;;;;;6.50;2.30;;;;;;;13.47;77.21;101654.38;5045398;28;20017;-32
2022/10/03 08:54:51;;;;;;;8.93;2.67;;;;;;;13.60;77.11;101655.25;5060306;28;20021;-30
2022/10/03 08:57:35;;;;;;;9.07;2.92;;;;;;;13.69;74.84;101663.16;5045637;28;20032;-30
2022/10/03 09:00:21;;;;;;;7.90;2.40;;;;;;;13.77;74.03;101656.91;5044248;28;20086;-30
2022/10/03 09:03:05;;;;;;;8.20;2.30;;;;;;;13.89;73.65;101655.94;5048858;28;20029;-32
2022/10/03 09:05:49;;;;;;;6.47;2.40;;;;;;;14.03;74.63;101653.19;5049750;28;20029;-29
2022/10/03 09:08:33;;;;;;;8.55;2.50;;;;;;;14.08;72.81;101657.56;5052217;28;20032;-30
2022/10/03 09:11:17;;;;;;;8.65;2.20;;;;;;;14.11;73.47;101660.19;5051137;28;20535;-29
2022/10/03 09:14:24;;;;;;;10.65;2.95;;;;;;;14.26;72.37;101649.44;5044943;28;20399;-30
2022/10/03 09:16:53;;;;;;;10.93;3.20;;;;;;;14.16;72.29;101662.81;5053155;28;20025;-29
2022/10/03 09:19:45;;;;;;;8.38;3.72;;;;;;;14.16;72.76;101660.16;5045835;28;20034;-30
2022/10/03 09:22:49;;;;;;;6.03;2.85;;;;;;;14.21;73.31;101671.59;5043303;28;20079;-30
2022/10/03 09:25:21;;;;;;;6.32;2.67;;;;;;;14.32;73.91;101665.31;5011583;28;20132;-30
2022/10/03 09:28:04;;;;;;;9.77;2.88;;;;;;;14.41;74.19;101667.91;5014309;28;20034;-30
2022/10/03 09:31:05;;;;;;;7.10;3.13;;;;;;;14.47;73.63;101659.88;5037683;28;20030;-31
2022/10/03 09:33:30;;;;;;;6.38;3.33;;;;;;;14.50;72.23;101664.28;5048289;28;20028;-29
2022/10/03 09:36:03;;;;;;;7.88;2.70;;;;;;;14.50;71.96;101659.84;5046936;28;20020;-29
2022/10/03 09:39:05;;;;;;;6.65;2.67;;;;;;;14.57;71.83;101673.06;5053747;28;20042;-29
2022/10/03 09:41:31;;;;;;;8.88;2.90;;;;;;;14.62;72.47;101676.56;5042003;28;20028;-29
2022/10/03 09:44:15;;;;;;;5.50;2.43;;;;;;;14.67;72.44;101660.59;5050973;28;20488;-28
2022/10/03 09:47:21;;;;;;;7.95;2.65;;;;;;;14.70;71.88;101663.19;5045568;28;20290;-29
2022/10/03 09:50:18;;;;;;;6.63;2.40;;;;;;;14.72;71.14;101659.63;5045439;28;20049;-29
2022/10/03 09:53:11;;;;;;;7.43;2.80;;;;;;;14.73;71.51;101661.38;5046172;28;20021;-30
2022/10/03 09:55:44;;;;;;;7.80;2.80;;;;;;;14.79;71.88;101654.28;5046178;28;20027;-29
2022/10/03 09:58:49;;;;;;;6.20;2.63;;;;;;;14.81;71.74;101663.13;5037370;28;20037;-29
2022/10/03 10:01:33;;;;;;;11.70;2.40;;;;;;;14.83;71.25;101654.22;5045992;28;20043;-29
2022/10/03 10:04:04;;;;;;;8.90;2.35;;;;;;;14.90;71.56;101657.69;5048599;28;20041;-29
2022/10/03 10:07:08;;;;;;;5.85;2.42;;;;;;;14.95;71.45;101653.22;5037285;28;20025;-29
2022/10/03 10:10:00;;;;;;;7.00;2.42;;;;;;;14.96;71.07;101649.66;5042061;28;20055;-30
2022/10/03 10:13:12;;;;;;;8.15;2.65;;;;;;;15.01;70.88;101650.47;5044215;28;20025;-30
2022/10/03 10:16:18;;;;;;;6.97;2.15;;;;;;;15.05;71.36;101651.34;5038215;28;20037;-29
2022/10/03 10:19:05;;;;;;;7.82;2.33;;;;;;;15.16;71.25;101653.84;5035070;28;20533;-32
2022/10/03 10:22:09;;;;;;;8.73;2.25;;;;;;;15.22;70.50;101659.09;5047713;28;20025;-30
2022/10/03 10:25:05;;;;;;;16.10;2.40;;;;;;;15.31;70.12;101655.41;5044808;28;20075;-30
2022/10/03 10:31:17;;;;;;;8.18;1.98;;;;;;;15.39;69.49;101650.00;5048623;28;20039;-29
2022/10/03 10:33:59;;;;;;;10.05;2.20;;;;;;;15.44;69.76;101647.28;5045339;28;20021;-29
2022/10/03 10:36:55;;;;;;;9.63;2.15;;;;;;;15.52;69.63;101646.28;5046608;28;20047;-29
2022/10/03 10:43:00;;;;;;;7.65;1.92;;;;;;;15.60;69.66;101642.63;5041619;28;20556;-29
2022/10/03 10:45:41;;;;;;;6.45;2.03;;;;;;;15.68;69.58;101647.84;5044056;28;20033;-29
2022/10/03 10:48:25;;;;;;;7.70;1.80;;;;;;;15.70;69.03;101652.22;5029866;28;20059;-30
2022/10/03 10:51:24;;;;;;;5.05;1.52;;;;;;;15.74;68.04;101645.94;5046088;28;20025;-29
2022/10/03 10:54:05;;;;;;;6.40;1.50;;;;;;;15.84;67.85;101652.00;5046911;28;20052;-29
2022/10/03 10:57:08;;;;;;;5.43;1.42;;;;;;;15.87;67.96;101646.66;5043655;28;20047;-29
2022/10/03 10:59:52;;;;;;;5.72;1.80;;;;;;;15.92;68.06;101643.91;5040447;28;20468;-29
2022/10/03 11:02:46;;;;;;;8.35;1.63;;;;;;;16.02;67.97;101642.03;5039187;28;20086;-29
2022/10/03 11:05:53;;;;;;;6.95;1.65;;;;;;;16.10;67.03;101641.88;5045322;28;20029;-30
2022/10/03 11:08:37;;;;;;;6.03;1.58;;;;;;;16.18;66.77;101633.78;5044935;28;20131;-29
2022/10/03 11:11:30;;;;;;;5.70;1.45;;;;;;;16.20;66.86;101640.81;5045463;28;20021;-30
2022/10/03 11:14:28;;;;;;;6.80;1.58;;;;;;;16.22;66.39;101640.78;5041179;28;20033;-29
2022/10/03 11:17:43;;;;;;;7.05;1.25;;;;;;;16.28;66.44;101636.22;5042851;28;20515;-29
2022/10/03 11:20:33;;;;;;;4.95;1.52;;;;;;;16.37;66.77;101634.34;5044511;28;20021;-29
2022/10/03 11:23:39;;;;;;;6.97;2.05;;;;;;;16.43;65.62;101626.22;5045328;28;20392;-30
2022/10/03 11:26:13;;;;;;;10.38;1.90;;;;;;;16.50;65.19;101635.84;5040538;28;20033;-32
2022/10/03 11:29:27;;;;;;;6.78;2.35;;;;;;;16.55;64.46;101633.13;5038457;28;20025;-29
2022/10/03 11:32:14;;;;;;;8.15;2.45;;;;;;;16.57;64.48;101630.44;5009530;28;20868;-28
2022/10/03 11:35:33;;;;;;;5.57;1.75;;;;;;;16.61;64.82;101632.13;5044543;28;20087;-30
2022/10/03 11:38:31;;;;;;;6.00;2.25;;;;;;;16.64;64.91;101634.72;5042838;28;20075;-30
2022/10/03 11:41:04;;;;;;;5.05;2.22;;;;;;;16.65;64.57;101633.81;4996054;28;20447;-29
2022/10/03 11:43:41;;;;;;;6.03;1.92;;;;;;;16.68;64.63;101623.97;5038362;28;20037;-29
2022/10/03 11:46:44;;;;;;;6.70;1.88;;;;;;;16.68;62.76;101634.63;5041300;28;20029;-29
2022/10/03 11:49:34;;;;;;;4.63;1.67;;;;;;;16.72;63.61;101629.25;5027448;28;20369;-29
2022/10/03 11:52:39;;;;;;;6.72;1.52;;;;;;;16.72;62.95;101629.25;5040436;28;20025;-31
2022/10/03 11:55:17;;;;;;;6.43;1.75;;;;;;;16.71;63.36;101627.50;5039521;28;20436;-29
2022/10/03 11:57:45;;;;;;;5.38;1.60;;;;;;;16.67;63.63;101624.88;5043584;28;20024;-29
2022/10/03 12:00:14;;;;;;;5.22;1.83;;;;;;;16.65;63.03;101620.50;5027573;28;20511;-29
2022/10/03 12:03:09;;;;;;;7.18;2.00;;;;;;;16.68;63.30;101626.63;5041150;28;20033;-30
2022/10/03 12:09:46;;;;;;;5.80;1.85;;;;;;;16.64;63.01;101618.75;5025007;28;20227;-29
2022/10/03 12:12:37;;;;;;;5.82;1.80;;;;;;;16.62;62.82;101620.56;5018660;28;20462;-30
2022/10/03 12:15:40;;;;;;;6.35;1.88;;;;;;;16.64;64.06;101608.97;5035506;28;20070;-28
2022/10/03 12:18:12;;;;;;;5.53;1.80;;;;;;;16.65;64.73;101612.50;5046612;28;20029;-27
2022/10/03 12:21:04;;;;;;;6.50;1.90;;;;;;;16.64;64.42;101610.75;5047044;28;20186;-27
2022/10/03 12:23:34;;;;;;;6.25;1.88;;;;;;;16.60;63.51;101614.41;5016108;28;20135;-28
2022/10/03 12:26:02;;;;;;;8.75;1.80;;;;;;;16.55;63.27;101607.34;5038438;28;20017;-30
2022/10/03 12:28:43;;;;;;;4.60;2.03;;;;;;;16.59;64.02;101608.19;5030607;28;20032;-30
2022/10/03 12:31:16;;;;;;;5.50;1.85;;;;;;;16.61;63.54;101602.81;5038279;28;20017;-28
2022/10/03 12:33:54;;;;;;;5.55;1.92;;;;;;;16.60;64.00;101603.75;5037609;28;20123;-29
2022/10/03 12:36:34;;;;;;;6.55;2.10;;;;;;;16.63;64.62;101603.66;5032913;28;20021;-28
2022/10/03 12:39:18;;;;;;;4.60;1.77;;;;;;;16.66;63.79;101614.25;5037843;28;20038;-28
2022/10/03 12:41:55;;;;;;;5.10;1.55;;;;;;;16.64;63.34;101610.75;5048591;28;20052;-28
2022/10/03 12:44:45;;;;;;;5.35;1.60;;;;;;;16.62;62.76;101602.81;5039531;28;20025;-28
2022/10/03 12:47:26;;;;;;;3.22;1.70;;;;;;;16.66;63.36;101608.94;5033816;28;20115;-28
2022/10/03 12:50:13;;;;;;;4.00;1.50;;;;;;;16.70;63.15;101599.97;5050723;28;20052;-29
2022/10/03 12:52:53;;;;;;;6.22;1.60;;;;;;;16.69;63.52;101600.88;5039415;28;20051;-28
2022/10/03 12:55:29;;;;;;;5.90;1.80;;;;;;;16.74;63.15;101604.31;5047895;28;20047;-28
2022/10/03 12:58:01;;;;;;;6.07;1.80;;;;;;;16.76;62.98;101601.63;5030192;28;20025;-29
2022/10/03 13:00:42;;;;;;;5.50;1.52;;;;;;;16.75;62.65;101595.44;5030361;28;20053;-29
2022/10/03 13:03:49;;;;;;;6.45;1.70;;;;;;;16.74;62.47;101596.34;5048798;28;20040;-29
2022/10/03 13:06:33;;;;;;;3.13;1.70;;;;;;;16.76;62.53;101599.84;5048973;28;20383;-28
2022/10/03 13:09:21;;;;;;;4.00;1.60;;;;;;;16.77;62.12;101611.38;5051096;28;20120;-29
2022/10/03 13:12:19;;;;;;;3.97;1.25;;;;;;;16.72;61.23;101611.47;5015668;28;20021;-29